createdAt,value
2018-04-27T00:00:06.604Z,13.30
2018-04-27T00:01:06.601Z,13.20
2018-04-27T00:02:06.611Z,13.80
2018-04-27T00:03:06.607Z,13.30
2018-04-27T00:04:06.616Z,13.70
2018-04-27T00:05:06.631Z,14.20
2018-04-27T00:06:06.619Z,14.40
2018-04-27T00:07:06.622Z,14.60
2018-04-27T00:08:09.250Z,14.20
2018-04-27T00:09:06.627Z,14.40
2018-04-27T00:10:06.624Z,14.20
2018-04-27T00:11:06.626Z,14.70
2018-04-27T00:12:06.631Z,15.40
2018-04-27T00:13:06.631Z,14.60
2018-04-27T00:14:06.637Z,15.00
2018-04-27T00:15:06.634Z,15.00
2018-04-27T00:16:06.649Z,15.40
2018-04-27T00:17:06.689Z,14.80
2018-04-27T00:18:06.633Z,15.10
2018-04-27T00:19:06.662Z,14.40
2018-04-27T00:20:06.642Z,15.20
2018-04-27T00:21:06.640Z,15.80
2018-04-27T00:22:06.641Z,15.20
2018-04-27T00:23:06.652Z,15.50
2018-04-27T00:24:06.658Z,15.20
2018-04-27T00:25:06.646Z,14.90
2018-04-27T00:26:06.652Z,15.80
2018-04-27T00:27:06.660Z,15.50
2018-04-27T00:28:06.664Z,15.20
2018-04-27T00:29:06.668Z,14.90
2018-04-27T00:30:06.679Z,15.60
2018-04-27T00:31:06.661Z,15.50
2018-04-27T00:32:06.668Z,15.40
2018-04-27T00:33:06.671Z,15.60
2018-04-27T00:34:06.677Z,15.50
2018-04-27T00:35:06.682Z,15.80
2018-04-27T00:36:06.687Z,16.20
2018-04-27T00:37:06.676Z,16.20
2018-04-27T00:38:06.681Z,16.50
2018-04-27T00:39:06.676Z,16.20
2018-04-27T00:40:06.685Z,15.80
2018-04-27T00:41:06.678Z,16.00
2018-04-27T00:42:06.688Z,16.30
2018-04-27T00:43:06.680Z,15.40
2018-04-27T00:44:06.683Z,15.40
2018-04-27T00:45:06.693Z,16.10
2018-04-27T00:46:06.688Z,15.60
2018-04-27T00:47:06.715Z,15.60
2018-04-27T00:48:06.702Z,15.60
2018-04-27T00:49:06.702Z,15.50
2018-04-27T00:50:06.710Z,15.10
2018-04-27T00:51:06.699Z,16.10
2018-04-27T00:52:06.708Z,16.00
2018-04-27T00:53:06.700Z,15.90
2018-04-27T00:54:06.706Z,15.40
2018-04-27T00:55:06.708Z,15.40
2018-04-27T00:56:06.741Z,16.70
2018-04-27T00:57:06.754Z,15.60
2018-04-27T00:58:06.712Z,16.10
2018-04-27T00:59:06.735Z,15.30
2018-04-27T01:00:06.723Z,15.80
2018-04-27T01:01:06.720Z,15.80
2018-04-27T01:02:06.723Z,15.30
2018-04-27T01:03:06.725Z,16.00
2018-04-27T01:04:06.727Z,15.70
2018-04-27T01:05:06.730Z,15.90
2018-04-27T01:06:06.725Z,16.50
2018-04-27T01:07:06.732Z,16.10
2018-04-27T01:08:06.735Z,15.40
2018-04-27T01:09:06.742Z,16.40
2018-04-27T01:10:06.734Z,15.90
2018-04-27T01:11:06.745Z,16.00
2018-04-27T01:12:06.746Z,15.40
2018-04-27T01:13:06.739Z,15.30
2018-04-27T01:14:06.744Z,16.20
2018-04-27T01:15:06.753Z,15.20
2018-04-27T01:16:06.751Z,16.10
2018-04-27T01:17:06.755Z,16.30
2018-04-27T01:18:06.759Z,16.30
2018-04-27T01:19:06.753Z,16.90
2018-04-27T01:20:06.761Z,15.50
2018-04-27T01:21:06.755Z,16.40
2018-04-27T01:22:06.765Z,16.40
2018-04-27T01:23:06.767Z,15.60
2018-04-27T01:24:06.773Z,15.40
2018-04-27T01:25:06.762Z,15.80
2018-04-27T01:26:06.775Z,16.10
2018-04-27T01:27:06.765Z,16.00
2018-04-27T01:28:06.771Z,14.90
2018-04-27T01:29:06.773Z,15.10
2018-04-27T01:30:06.778Z,15.40
2018-04-27T01:31:06.773Z,14.90
2018-04-27T01:32:06.785Z,15.10
2018-04-27T01:33:06.784Z,15.10
2018-04-27T01:34:06.785Z,14.80
2018-04-27T01:35:06.782Z,15.00
2018-04-27T01:36:07.767Z,14.60
2018-04-27T01:37:06.793Z,14.60
2018-04-27T01:38:06.793Z,15.00
2018-04-27T01:39:06.797Z,15.10
2018-04-27T01:40:06.793Z,15.10
2018-04-27T01:41:06.791Z,15.10
2018-04-27T01:42:06.792Z,14.70
2018-04-27T01:43:06.808Z,14.70
2018-04-27T01:44:06.802Z,14.20
2018-04-27T01:45:06.796Z,15.10
2018-04-27T01:46:06.803Z,14.40
2018-04-27T01:47:06.806Z,14.60
2018-04-27T01:48:06.831Z,14.20
2018-04-27T01:49:06.816Z,15.00
2018-04-27T01:50:06.810Z,13.90
2018-04-27T01:51:06.814Z,14.10
2018-04-27T01:52:06.817Z,14.00
2018-04-27T01:53:06.817Z,13.90
2018-04-27T01:54:06.817Z,13.80
2018-04-27T01:55:06.813Z,14.40
2018-04-27T01:56:07.770Z,13.70
2018-04-27T01:57:06.825Z,14.60
2018-04-27T01:58:06.834Z,14.20
2018-04-27T01:59:06.827Z,14.80
2018-04-27T02:00:06.824Z,14.20
2018-04-27T02:01:06.835Z,13.80
2018-04-27T02:02:06.836Z,13.90
2018-04-27T02:03:06.832Z,14.20
2018-04-27T02:04:06.838Z,14.30
2018-04-27T02:05:06.837Z,13.90
2018-04-27T02:06:06.840Z,14.20
2018-04-27T02:07:06.847Z,14.40
2018-04-27T02:08:06.842Z,14.00
2018-04-27T02:09:06.844Z,13.80
2018-04-27T02:10:06.835Z,14.40
2018-04-27T02:11:06.829Z,14.90
2018-04-27T02:12:06.839Z,14.30
2018-04-27T02:13:06.835Z,14.10
2018-04-27T02:14:06.836Z,14.90
2018-04-27T02:15:06.848Z,13.80
2018-04-27T02:16:06.853Z,13.50
2018-04-27T02:17:06.838Z,13.40
2018-04-27T02:18:06.842Z,14.10
2018-04-27T02:19:06.847Z,14.10
2018-04-27T02:20:06.848Z,13.10
2018-04-27T02:21:06.852Z,13.70
2018-04-27T02:22:06.851Z,13.70
2018-04-27T02:23:06.853Z,14.60
2018-04-27T02:24:06.858Z,13.60
2018-04-27T02:25:06.856Z,13.50
2018-04-27T02:26:06.863Z,13.80
2018-04-27T02:27:06.859Z,14.50
2018-04-27T02:28:06.859Z,14.00
2018-04-27T02:29:06.864Z,13.80
2018-04-27T02:30:06.863Z,14.60
2018-04-27T02:31:06.866Z,13.90
2018-04-27T02:32:06.863Z,14.90
2018-04-27T02:33:06.877Z,14.30
2018-04-27T02:34:06.872Z,13.60
2018-04-27T02:35:06.882Z,13.80
2018-04-27T02:36:06.879Z,13.90
2018-04-27T02:37:06.874Z,13.70
2018-04-27T02:38:06.882Z,13.60
2018-04-27T02:39:06.890Z,13.60
2018-04-27T02:40:06.884Z,13.70
2018-04-27T02:41:06.881Z,14.20
2018-04-27T02:42:06.883Z,13.70
2018-04-27T02:43:06.880Z,13.20
2018-04-27T02:44:06.886Z,13.50
2018-04-27T02:45:06.885Z,14.20
2018-04-27T02:46:06.890Z,13.80
2018-04-27T02:47:06.888Z,14.10
2018-04-27T02:48:06.898Z,13.60
2018-04-27T02:49:06.889Z,13.90
2018-04-27T02:50:06.901Z,14.00
2018-04-27T02:51:06.892Z,14.30
2018-04-27T02:52:06.902Z,13.90
2018-04-27T02:53:06.903Z,13.70
2018-04-27T02:54:06.898Z,13.40
2018-04-27T02:55:06.905Z,13.60
2018-04-27T02:57:06.904Z,13.30
2018-04-27T02:59:06.916Z,13.60
2018-04-27T03:00:06.913Z,13.90
2018-04-27T03:01:06.910Z,13.50
2018-04-27T03:02:06.921Z,13.70
2018-04-27T03:03:06.913Z,13.40
2018-04-27T03:04:06.919Z,13.90
2018-04-27T03:05:06.921Z,14.00
2018-04-27T03:06:06.920Z,13.90
2018-04-27T03:07:06.935Z,13.80
2018-04-27T03:08:06.924Z,13.40
2018-04-27T03:09:06.923Z,13.10
2018-04-27T03:10:06.929Z,13.00
2018-04-27T03:11:06.928Z,13.00
2018-04-27T03:12:06.935Z,13.20
2018-04-27T03:13:06.941Z,13.50
2018-04-27T03:14:06.933Z,13.40
2018-04-27T03:15:06.940Z,12.90
2018-04-27T03:16:06.942Z,13.20
2018-04-27T03:17:06.935Z,13.60
2018-04-27T03:18:06.945Z,13.50
2018-04-27T03:19:06.937Z,13.60
2018-04-27T03:20:06.937Z,13.20
2018-04-27T03:21:06.950Z,13.80
2018-04-27T03:22:06.948Z,13.40
2018-04-27T03:23:06.954Z,13.20
2018-04-27T03:24:07.065Z,13.10
2018-04-27T03:25:06.953Z,13.40
2018-04-27T03:26:06.962Z,13.30
2018-04-27T03:27:06.956Z,13.30
2018-04-27T03:28:06.956Z,12.70
2018-04-27T03:29:06.957Z,13.00
2018-04-27T03:30:06.956Z,13.10
2018-04-27T03:31:06.970Z,13.10
2018-04-27T03:32:06.956Z,13.30
2018-04-27T03:33:06.968Z,12.80
2018-04-27T03:34:06.969Z,13.00
2018-04-27T03:35:06.965Z,12.50
2018-04-27T03:36:06.972Z,12.70
2018-04-27T03:37:06.965Z,12.90
2018-04-27T03:38:06.971Z,13.30
2018-04-27T03:39:06.974Z,13.20
2018-04-27T03:40:06.983Z,13.00
2018-04-27T03:41:06.980Z,12.60
2018-04-27T03:42:06.984Z,12.30
2018-04-27T03:43:06.981Z,13.00
2018-04-27T03:44:06.983Z,13.00
2018-04-27T03:45:07.027Z,12.40
2018-04-27T03:46:06.982Z,13.70
2018-04-27T03:47:06.985Z,12.50
2018-04-27T03:48:06.996Z,11.90
2018-04-27T03:49:06.984Z,11.70
2018-04-27T03:50:07.028Z,12.20
2018-04-27T03:51:06.987Z,12.50
2018-04-27T03:52:06.988Z,11.60
2018-04-27T03:53:06.996Z,12.00
2018-04-27T03:54:06.992Z,12.60
2018-04-27T03:55:07.005Z,11.90
2018-04-27T03:56:07.003Z,11.60
2018-04-27T03:57:06.995Z,12.10
2018-04-27T03:58:07.000Z,12.20
2018-04-27T03:59:07.000Z,12.30
2018-04-27T04:00:07.002Z,11.50
2018-04-27T04:01:07.016Z,11.90
2018-04-27T04:02:07.002Z,11.50
2018-04-27T04:03:07.013Z,11.70
2018-04-27T04:04:07.006Z,11.20
2018-04-27T04:05:07.015Z,11.20
2018-04-27T04:06:07.013Z,11.70
2018-04-27T04:07:07.023Z,11.30
2018-04-27T04:08:07.019Z,11.90
2018-04-27T04:09:07.014Z,11.00
2018-04-27T04:10:07.024Z,10.80
2018-04-27T04:11:07.018Z,11.60
2018-04-27T04:12:07.032Z,11.90
2018-04-27T04:13:07.025Z,11.90
2018-04-27T04:14:07.027Z,11.30
2018-04-27T04:15:07.030Z,11.10
2018-04-27T04:16:07.035Z,11.80
2018-04-27T04:17:07.036Z,10.80
2018-04-27T04:18:07.031Z,11.60
2018-04-27T04:19:07.035Z,11.70
2018-04-27T04:20:07.041Z,11.10
2018-04-27T04:21:07.032Z,11.10
2018-04-27T04:22:07.039Z,10.50
2018-04-27T04:23:07.042Z,11.10
2018-04-27T04:24:07.039Z,10.50
2018-04-27T04:25:07.048Z,10.60
2018-04-27T04:26:07.047Z,10.60
2018-04-27T04:27:07.051Z,10.70
2018-04-27T04:28:07.052Z,10.90
2018-04-27T04:29:07.060Z,11.00
2018-04-27T04:30:07.794Z,11.00
2018-04-27T04:31:07.075Z,10.90
2018-04-27T04:32:07.054Z,10.60
2018-04-27T04:33:07.053Z,10.90
2018-04-27T04:34:07.051Z,10.70
2018-04-27T04:35:07.061Z,10.70
2018-04-27T04:36:07.063Z,11.10
2018-04-27T04:37:07.060Z,10.30
2018-04-27T04:38:07.073Z,10.10
2018-04-27T04:39:07.068Z,10.10
2018-04-27T04:40:07.067Z,11.10
2018-04-27T04:41:07.069Z,10.10
2018-04-27T04:42:07.413Z,10.40
2018-04-27T04:43:07.336Z,10.00
2018-04-27T04:44:08.598Z,11.30
2018-04-27T04:45:07.087Z,11.00
2018-04-27T04:46:07.136Z,9.80
2018-04-27T04:47:07.088Z,9.80
2018-04-27T04:48:07.088Z,10.40
2018-04-27T04:49:07.085Z,10.40
2018-04-27T04:50:07.084Z,10.00
2018-04-27T04:51:08.356Z,10.40
2018-04-27T04:52:07.085Z,10.00
2018-04-27T04:53:07.086Z,10.70
2018-04-27T04:54:07.097Z,10.40
2018-04-27T04:55:07.096Z,10.30
2018-04-27T04:56:07.089Z,10.40
2018-04-27T04:57:07.102Z,10.00
2018-04-27T04:58:07.098Z,10.00
2018-04-27T04:59:07.789Z,9.40
2018-04-27T05:00:07.103Z,10.50
2018-04-27T05:01:07.100Z,9.10
2018-04-27T05:02:07.097Z,10.50
2018-04-27T05:03:07.101Z,9.30
2018-04-27T05:04:07.107Z,9.80
2018-04-27T05:05:07.108Z,10.00
2018-04-27T05:06:07.109Z,9.10
2018-04-27T05:07:07.108Z,10.00
2018-04-27T05:08:07.112Z,10.70
2018-04-27T05:09:07.148Z,9.40
2018-04-27T05:10:07.113Z,9.40
2018-04-27T05:11:07.117Z,10.00
2018-04-27T05:12:07.117Z,9.00
2018-04-27T05:13:07.122Z,9.10
2018-04-27T05:14:07.121Z,9.00
2018-04-27T05:15:07.118Z,9.30
2018-04-27T05:16:07.127Z,8.90
2018-04-27T05:17:07.120Z,8.80
2018-04-27T05:18:07.135Z,8.80
2018-04-27T05:19:07.131Z,9.10
2018-04-27T05:20:07.126Z,8.80
2018-04-27T05:21:07.133Z,9.00
2018-04-27T05:22:07.161Z,8.80
2018-04-27T05:23:07.139Z,8.90
2018-04-27T05:24:07.140Z,8.50
2018-04-27T05:25:07.159Z,9.80
2018-04-27T05:26:07.143Z,9.10
2018-04-27T05:27:07.140Z,8.90
2018-04-27T05:28:07.150Z,9.40
2018-04-27T05:29:07.151Z,9.70
2018-04-27T05:30:07.151Z,9.60
2018-04-27T05:31:07.144Z,9.80
2018-04-27T05:32:07.149Z,8.50
2018-04-27T05:33:07.159Z,9.00
2018-04-27T05:34:07.156Z,9.20
2018-04-27T05:35:07.161Z,9.20
2018-04-27T05:36:07.168Z,9.30
2018-04-27T05:37:07.169Z,9.40
2018-04-27T05:38:07.161Z,8.90
2018-04-27T05:39:07.165Z,9.40
2018-04-27T05:40:07.202Z,9.70
2018-04-27T05:41:07.184Z,9.30
2018-04-27T05:42:07.179Z,9.20
2018-04-27T05:43:07.167Z,9.40
2018-04-27T05:44:07.182Z,9.90
2018-04-27T05:45:07.179Z,9.30
2018-04-27T05:46:07.182Z,9.00
2018-04-27T05:47:07.178Z,9.00
2018-04-27T05:48:07.185Z,8.30
2018-04-27T05:49:07.185Z,8.00
2018-04-27T05:50:07.189Z,8.40
2018-04-27T05:51:07.183Z,7.50
2018-04-27T05:52:07.194Z,7.80
2018-04-27T05:53:07.197Z,7.40
2018-04-27T05:54:07.193Z,7.00
2018-04-27T05:55:07.200Z,7.60
2018-04-27T05:56:07.199Z,7.70
2018-04-27T05:57:07.213Z,7.40
2018-04-27T05:58:07.208Z,7.90
2018-04-27T05:59:07.811Z,7.30
2018-04-27T06:00:07.228Z,6.40
2018-04-27T06:02:00.170Z,6.70
2018-04-27T06:03:00.141Z,6.90
2018-04-27T06:04:53.919Z,7.40
2018-04-27T06:05:53.992Z,8.20
2018-04-27T06:06:53.926Z,6.70
2018-04-27T06:07:53.928Z,6.80
2018-04-27T06:08:53.938Z,6.60
2018-04-27T06:09:53.942Z,6.60
2018-04-27T06:10:53.951Z,6.30
2018-04-27T06:11:53.969Z,6.40
2018-04-27T06:12:53.966Z,6.50
2018-04-27T06:13:53.975Z,7.20
2018-04-27T06:14:53.984Z,6.30
2018-04-27T06:15:53.998Z,7.10
2018-04-27T06:16:54.009Z,6.60
2018-04-27T06:17:54.016Z,6.40
2018-04-27T06:18:54.021Z,6.50
2018-04-27T06:19:54.039Z,5.60
2018-04-27T06:20:54.043Z,6.20
2018-04-27T06:21:54.072Z,5.10
2018-04-27T06:22:54.073Z,5.00
2018-04-27T06:23:54.118Z,5.50
2018-04-27T06:24:54.105Z,5.40
2018-04-27T06:25:54.100Z,5.40
2018-04-27T06:26:54.115Z,5.30
2018-04-27T06:27:54.187Z,5.70
2018-04-27T06:28:54.191Z,5.60
2018-04-27T06:29:54.137Z,5.50
2018-04-27T06:30:54.218Z,5.20
2018-04-27T06:31:54.222Z,5.30
2018-04-27T06:32:54.178Z,5.00
2018-04-27T06:33:54.210Z,6.00
2018-04-27T06:34:54.204Z,5.00
2018-04-27T06:35:54.210Z,5.10
2018-04-27T06:36:54.218Z,4.70
2018-04-27T06:37:54.241Z,5.30
2018-04-27T06:38:54.242Z,5.30
2018-04-27T06:39:54.261Z,5.30
2018-04-27T06:40:54.270Z,4.80
2018-04-27T06:41:54.280Z,5.10
2018-04-27T06:57:04.782Z,4.20
2018-04-27T06:58:04.759Z,4.60
2018-04-27T06:59:58.223Z,4.40
2018-04-27T07:00:57.722Z,4.50
2018-04-27T07:01:57.746Z,4.70
2018-04-27T07:02:57.738Z,4.80
2018-04-27T07:03:57.748Z,4.50
2018-04-27T07:04:57.757Z,4.40
2018-04-27T07:05:57.773Z,4.60
2018-04-27T07:06:57.783Z,4.20
2018-04-27T07:07:57.800Z,4.70
2018-04-27T07:08:57.814Z,3.90
2018-04-27T07:09:57.821Z,4.20
2018-04-27T07:10:57.855Z,4.10
2018-04-27T07:11:57.871Z,4.60
2018-04-27T07:12:57.872Z,4.60
2018-04-27T07:13:57.877Z,4.10
2018-04-27T07:14:58.633Z,3.80
2018-04-27T07:15:57.915Z,3.60
2018-04-27T07:16:57.953Z,4.20
2018-04-27T07:17:57.938Z,4.70
2018-04-27T07:18:59.711Z,4.00
2018-04-27T07:19:57.967Z,4.60
2018-04-27T07:20:57.985Z,3.90
2018-04-27T07:21:58.644Z,4.20
2018-04-27T07:22:58.011Z,4.30
2018-04-27T07:23:58.046Z,4.70
2018-04-27T07:24:58.050Z,4.30
2018-04-27T07:25:58.146Z,4.40
2018-04-27T07:26:58.088Z,4.50
2018-04-27T07:27:58.085Z,4.00
2018-04-27T07:28:58.102Z,4.60
2018-04-27T07:29:58.116Z,4.10
2018-04-27T07:30:58.130Z,4.40
2018-04-27T07:31:58.149Z,4.20
2018-04-27T07:32:58.167Z,4.10
2018-04-27T07:33:58.177Z,4.20
2018-04-27T07:34:58.301Z,4.60
2018-04-27T07:35:58.209Z,4.40
2018-04-27T07:36:58.229Z,4.40
2018-04-27T07:37:58.296Z,3.90
2018-04-27T07:38:58.255Z,4.00
2018-04-27T07:39:58.291Z,3.80
2018-04-27T07:40:58.280Z,4.50
2018-04-27T07:41:58.301Z,4.20
2018-04-27T07:42:58.316Z,4.90
2018-04-27T07:43:58.326Z,4.20
2018-04-27T07:44:58.349Z,4.30
2018-04-27T07:45:58.355Z,4.00
2018-04-27T07:46:58.374Z,3.80
2018-04-27T07:47:58.389Z,4.00
2018-04-27T07:48:58.404Z,3.80
2018-04-27T07:49:58.427Z,4.80
2018-04-27T07:50:58.434Z,4.70
2018-04-27T07:51:58.473Z,3.60
2018-04-27T07:52:58.468Z,4.10
2018-04-27T07:53:58.489Z,3.80
2018-04-27T07:54:58.498Z,3.90
2018-04-27T07:56:58.528Z,3.90
2018-04-27T07:57:58.554Z,3.50
2018-04-27T07:58:58.566Z,4.00
2018-04-27T07:59:58.578Z,3.90
2018-04-27T08:00:58.666Z,3.70
2018-04-27T08:01:58.618Z,4.50
2018-04-27T08:02:58.653Z,3.20
2018-04-27T08:03:58.647Z,3.80
2018-04-27T08:04:58.665Z,3.40
2018-04-27T08:05:58.680Z,3.90
2018-04-27T08:06:58.692Z,4.20
2018-04-27T08:07:58.705Z,4.50
2018-04-27T08:08:58.724Z,3.60
2018-04-27T08:09:58.736Z,3.60
2018-04-27T08:10:58.750Z,3.40
2018-04-27T08:11:58.771Z,4.50
2018-04-27T08:12:58.788Z,4.80
2018-04-27T08:13:58.800Z,3.70
2018-04-27T08:14:58.812Z,3.90
2018-04-27T08:15:58.832Z,3.20
2018-04-27T08:16:58.840Z,3.50
2018-04-27T08:17:58.864Z,3.50
2018-04-27T08:18:58.876Z,3.70
2018-04-27T08:19:58.893Z,3.20
2018-04-27T08:20:58.901Z,3.60
2018-04-27T08:21:58.913Z,3.50
2018-04-27T08:22:58.936Z,3.20
2018-04-27T08:23:58.946Z,3.30
2018-04-27T08:24:58.961Z,3.20
2018-04-27T08:25:58.992Z,3.20
2018-04-27T08:26:58.994Z,4.10
2018-04-27T08:27:59.003Z,3.20
2018-04-27T08:28:59.022Z,3.40
2018-04-27T08:29:59.038Z,4.00
2018-04-27T08:30:59.053Z,3.30
2018-04-27T08:31:59.065Z,3.40
2018-04-27T08:32:59.079Z,3.10
2018-04-27T08:33:59.095Z,3.40
2018-04-27T08:34:59.118Z,3.00
2018-04-27T08:35:59.120Z,3.10
2018-04-27T08:36:59.134Z,3.50
2018-04-27T08:37:59.149Z,3.40
2018-04-27T08:38:59.161Z,3.50
2018-04-27T08:39:59.179Z,3.50
2018-04-27T08:40:59.195Z,3.40
2018-04-27T08:41:59.228Z,3.60
2018-04-27T08:42:59.216Z,3.50
2018-04-27T08:43:59.238Z,3.80
2018-04-27T08:44:59.246Z,3.80
2018-04-27T08:45:59.265Z,3.90
2018-04-27T08:46:59.273Z,3.70
2018-04-27T08:47:59.292Z,3.50
2018-04-27T08:48:59.306Z,3.70
2018-04-27T08:49:59.317Z,3.50
2018-04-27T08:50:59.323Z,3.50
2018-04-27T08:51:59.343Z,3.90
2018-04-27T08:52:59.364Z,3.60
2018-04-27T08:53:59.373Z,3.50
2018-04-27T08:54:59.379Z,3.00
2018-04-27T08:55:59.389Z,3.40
2018-04-27T08:56:59.406Z,3.30
2018-04-27T08:57:59.419Z,3.30
2018-04-27T08:58:59.421Z,3.30
2018-04-27T08:59:59.435Z,3.30
2018-04-27T09:00:59.445Z,3.40
2018-04-27T09:01:59.454Z,3.20
2018-04-27T09:02:59.465Z,3.60
2018-04-27T09:03:59.481Z,3.50
2018-04-27T09:04:59.487Z,4.50
2018-04-27T09:05:59.501Z,3.80
2018-04-27T09:06:59.512Z,3.60
2018-04-27T09:07:59.520Z,3.50
2018-04-27T09:08:59.532Z,3.80
2018-04-27T09:09:59.540Z,3.60
2018-04-27T09:10:59.549Z,3.30
2018-04-27T09:11:59.567Z,3.30
2018-04-27T09:12:59.598Z,3.30
2018-04-27T09:13:59.581Z,3.50
2018-04-27T09:14:59.590Z,3.20
2018-04-27T09:15:59.609Z,3.50
2018-04-27T09:16:59.612Z,4.00
2018-04-27T09:17:59.626Z,4.00
2018-04-27T09:18:59.640Z,3.40
2018-04-27T09:19:59.652Z,4.00
2018-04-27T09:20:59.657Z,4.30
2018-04-27T09:21:59.667Z,3.40
2018-04-27T09:22:59.703Z,4.00
2018-04-27T09:23:59.687Z,3.40
2018-04-27T09:24:59.691Z,4.00
2018-04-27T09:25:59.699Z,4.00
2018-04-27T09:26:59.738Z,4.40
2018-04-27T09:27:59.727Z,3.80
2018-04-27T09:28:59.742Z,4.20
2018-04-27T09:29:59.746Z,3.70
2018-04-27T09:30:59.758Z,4.20
2018-04-27T09:31:59.761Z,3.60
2018-04-27T09:32:59.774Z,3.80
2018-04-27T09:33:59.789Z,3.90
2018-04-27T09:34:59.804Z,3.80
2018-04-27T09:35:59.810Z,3.50
2018-04-27T09:36:59.823Z,4.40
2018-04-27T09:37:59.822Z,4.00
2018-04-27T09:38:59.836Z,3.90
2018-04-27T09:39:59.853Z,4.10
2018-04-27T09:40:59.864Z,3.90
2018-04-27T09:41:59.875Z,4.10
2018-04-27T09:42:59.883Z,3.90
2018-04-27T09:43:59.962Z,3.70
2018-04-27T09:44:59.909Z,3.90
2018-04-27T09:45:59.914Z,3.30
2018-04-27T09:46:59.925Z,3.60
2018-04-27T09:47:59.944Z,3.70
2018-04-27T09:48:59.976Z,3.30
2018-04-27T09:49:59.966Z,3.70
2018-04-27T09:50:59.982Z,3.30
2018-04-27T09:51:59.983Z,4.00
2018-04-27T09:52:59.997Z,3.60
2018-04-27T09:54:00.019Z,3.30
2018-04-27T09:55:00.023Z,3.10
2018-04-27T09:56:00.033Z,3.70
2018-04-27T09:57:00.052Z,3.70
2018-04-27T09:58:00.052Z,3.50
2018-04-27T09:59:00.063Z,3.20
2018-04-27T10:00:00.082Z,3.30
2018-04-27T10:01:00.090Z,3.60
2018-04-27T10:02:00.108Z,3.80
2018-04-27T10:03:00.118Z,3.80
2018-04-27T10:04:00.121Z,4.10
2018-04-27T10:05:00.143Z,3.50
2018-04-27T10:06:00.148Z,4.80
2018-04-27T10:07:00.157Z,3.90
2018-04-27T10:08:00.177Z,4.40
2018-04-27T10:09:00.183Z,3.80
2018-04-27T10:10:00.199Z,3.30
2018-04-27T10:11:00.242Z,3.90
2018-04-27T10:12:00.261Z,4.40
2018-04-27T10:13:00.263Z,4.00
2018-04-27T10:14:00.290Z,3.70
2018-04-27T10:15:00.326Z,3.60
2018-04-27T10:16:00.279Z,3.80
2018-04-27T10:17:00.297Z,4.20
2018-04-27T10:18:00.301Z,3.90
2018-04-27T10:19:00.304Z,4.30
2018-04-27T10:20:00.322Z,3.70
2018-04-27T10:21:00.346Z,3.90
2018-04-27T10:22:00.338Z,3.30
2018-04-27T10:23:00.366Z,3.70
2018-04-27T10:24:01.294Z,3.90
2018-04-27T10:25:00.416Z,4.20
2018-04-27T10:26:00.399Z,3.80
2018-04-27T10:27:00.398Z,4.00
2018-04-27T10:28:00.414Z,4.50
2018-04-27T10:29:00.417Z,3.70
2018-04-27T10:30:00.427Z,3.90
2018-04-27T10:31:00.451Z,3.90
2018-04-27T10:32:00.454Z,3.70
2018-04-27T10:33:00.531Z,3.80
2018-04-27T10:34:00.490Z,3.30
2018-04-27T10:35:00.508Z,3.90
2018-04-27T10:36:00.505Z,3.80
2018-04-27T10:37:00.541Z,3.90
2018-04-27T10:38:00.542Z,3.90
2018-04-27T10:39:00.550Z,3.60
2018-04-27T10:40:00.550Z,3.80
2018-04-27T10:41:00.566Z,3.90
2018-04-27T10:42:00.573Z,3.70
2018-04-27T10:43:00.680Z,3.80
2018-04-27T10:44:00.616Z,4.10
2018-04-27T10:45:00.615Z,3.90
2018-04-27T10:46:00.641Z,3.90
2018-04-27T10:47:00.634Z,3.30
2018-04-27T10:48:00.644Z,3.70
2018-04-27T10:49:00.654Z,3.80
2018-04-27T10:50:00.674Z,4.10
2018-04-27T10:51:00.682Z,3.90
2018-04-27T10:52:00.709Z,3.40
2018-04-27T10:53:00.743Z,4.20
2018-04-27T10:54:00.716Z,3.80
2018-04-27T10:55:00.755Z,3.60
2018-04-27T10:56:00.772Z,3.90
2018-04-27T10:57:00.775Z,5.70
2018-04-27T10:58:00.779Z,3.80
2018-04-27T10:59:00.783Z,4.10
2018-04-27T11:00:00.794Z,3.40
2018-04-27T11:01:00.812Z,4.10
2018-04-27T11:02:00.813Z,3.90
2018-04-27T11:03:00.829Z,3.80
2018-04-27T11:04:00.852Z,3.60
2018-04-27T11:05:00.870Z,3.80
2018-04-27T11:06:00.870Z,63.80
2018-04-27T11:07:00.878Z,5.80
2018-04-27T11:08:00.892Z,3.90
2018-04-27T11:09:00.899Z,4.30
2018-04-27T11:10:00.921Z,4.00
2018-04-27T11:11:01.913Z,4.30
2018-04-27T11:12:00.939Z,3.70
2018-04-27T11:13:00.954Z,4.00
2018-04-27T11:14:00.959Z,3.90
2018-04-27T11:15:00.967Z,4.20
2018-04-27T11:16:00.992Z,4.30
2018-04-27T11:17:01.061Z,4.00
2018-04-27T11:18:01.008Z,3.90
2018-04-27T11:19:01.069Z,3.80
2018-04-27T11:20:01.030Z,3.60
2018-04-27T11:21:01.037Z,4.00
2018-04-27T11:22:01.058Z,3.80
2018-04-27T11:23:01.065Z,3.60
2018-04-27T11:24:01.067Z,3.40
2018-04-27T11:25:01.114Z,3.70
2018-04-27T11:26:01.092Z,3.70
2018-04-27T11:27:01.109Z,3.80
2018-04-27T11:28:01.113Z,3.40
2018-04-27T11:29:01.131Z,3.60
2018-04-27T11:30:01.155Z,3.50
2018-04-27T11:31:01.152Z,3.90
2018-04-27T11:32:01.157Z,3.30
2018-04-27T11:33:01.231Z,3.60
2018-04-27T11:34:01.177Z,3.40
2018-04-27T11:35:01.190Z,3.10
2018-04-27T11:36:01.210Z,3.50
2018-04-27T11:37:01.272Z,3.50
2018-04-27T11:38:01.267Z,3.40
2018-04-27T11:39:01.256Z,3.70
2018-04-27T11:40:01.307Z,3.50
2018-04-27T11:41:01.315Z,3.60
2018-04-27T11:42:01.328Z,3.50
2018-04-27T11:43:01.311Z,3.60
2018-04-27T11:44:01.320Z,3.20
2018-04-27T11:45:01.356Z,3.40
2018-04-27T11:46:01.345Z,3.60
2018-04-27T11:47:01.364Z,3.40
2018-04-27T11:48:01.329Z,3.50
2018-04-27T11:49:01.377Z,4.00
2018-04-27T11:50:01.391Z,3.60
2018-04-27T11:51:01.407Z,3.60
2018-04-27T11:52:01.414Z,3.70
2018-04-27T11:53:01.408Z,3.30
2018-04-27T11:54:01.375Z,3.60
2018-04-27T11:55:01.376Z,3.30
2018-04-27T11:56:01.389Z,3.50
2018-04-27T11:57:01.399Z,2.90
2018-04-27T11:58:01.404Z,3.30
2018-04-27T11:59:01.412Z,3.20
2018-04-27T12:00:01.440Z,3.60
2018-04-27T12:01:01.437Z,3.50
2018-04-27T12:02:01.452Z,3.50
2018-04-27T12:03:01.452Z,3.50
2018-04-27T12:04:01.463Z,3.40
2018-04-27T12:05:01.477Z,3.80
2018-04-27T12:06:01.480Z,3.40
2018-04-27T12:07:01.495Z,2.90
2018-04-27T12:08:01.504Z,3.00
2018-04-27T12:09:01.506Z,3.10
2018-04-27T12:10:01.529Z,3.00
2018-04-27T12:11:01.524Z,3.10
2018-04-27T12:12:01.543Z,3.10
2018-04-27T12:13:01.552Z,3.10
2018-04-27T12:14:01.550Z,3.10
2018-04-27T12:15:01.563Z,2.90
2018-04-27T12:16:01.576Z,3.20
2018-04-27T12:17:01.577Z,3.50
2018-04-27T12:18:01.595Z,3.20
2018-04-27T12:19:01.663Z,2.90
2018-04-27T12:20:01.614Z,2.80
2018-04-27T12:21:01.618Z,3.40
2018-04-27T12:22:01.622Z,2.60
2018-04-27T12:23:01.643Z,2.70
2018-04-27T12:24:01.644Z,2.90
2018-04-27T12:25:01.653Z,3.00
2018-04-27T12:26:01.664Z,2.70
2018-04-27T12:27:01.679Z,3.00
2018-04-27T12:28:01.683Z,2.90
2018-04-27T12:29:01.692Z,3.10
2018-04-27T12:30:01.696Z,2.90
2018-04-27T12:31:01.729Z,2.80
2018-04-27T12:32:01.713Z,3.30
2018-04-27T12:33:01.729Z,3.10
2018-04-27T12:34:01.728Z,3.10
2018-04-27T12:35:01.751Z,2.70
2018-04-27T12:36:01.751Z,2.80
2018-04-27T12:37:01.762Z,2.80
2018-04-27T12:38:01.780Z,2.80
2018-04-27T12:39:01.778Z,2.90
2018-04-27T12:40:01.786Z,2.80
2018-04-27T12:41:01.794Z,2.70
2018-04-27T12:42:01.825Z,2.60
2018-04-27T12:43:01.809Z,2.70
2018-04-27T12:44:01.817Z,2.70
2018-04-27T12:45:01.862Z,2.60
2018-04-27T12:46:01.841Z,2.80
2018-04-27T12:47:01.840Z,2.50
2018-04-27T12:48:01.851Z,2.80
2018-04-27T12:49:01.857Z,2.90
2018-04-27T12:50:01.881Z,2.40
2018-04-27T12:51:01.869Z,2.50
2018-04-27T12:52:01.881Z,2.60
2018-04-27T12:53:01.890Z,2.70
2018-04-27T12:54:01.904Z,2.50
2018-04-27T12:55:01.905Z,2.90
2018-04-27T12:56:01.933Z,2.70
2018-04-27T12:57:01.924Z,2.50
2018-04-27T12:58:01.937Z,2.20
2018-04-27T12:59:01.944Z,2.50
2018-04-27T13:00:01.949Z,2.50
2018-04-27T13:01:02.856Z,2.10
2018-04-27T13:02:01.966Z,2.40
2018-04-27T13:03:01.969Z,2.50
2018-04-27T13:04:01.984Z,2.80
2018-04-27T13:05:02.040Z,2.60
2018-04-27T13:06:02.006Z,3.10
2018-04-27T13:07:02.003Z,2.40
2018-04-27T13:08:02.078Z,3.50
2018-04-27T13:09:02.017Z,2.50
2018-04-27T13:10:02.035Z,2.60
2018-04-27T13:11:02.041Z,2.80
2018-04-27T13:12:02.049Z,2.70
2018-04-27T13:13:02.049Z,2.40
2018-04-27T13:14:02.064Z,2.70
2018-04-27T13:15:02.071Z,2.60
2018-04-27T13:16:02.211Z,2.50
2018-04-27T13:17:02.087Z,2.30
2018-04-27T13:18:02.088Z,3.20
2018-04-27T13:19:02.125Z,2.20
2018-04-27T13:20:02.106Z,2.40
2018-04-27T13:21:02.114Z,2.50
2018-04-27T13:22:02.121Z,2.80
2018-04-27T13:23:02.129Z,2.40
2018-04-27T13:24:02.136Z,2.70
2018-04-27T13:25:02.140Z,2.60
2018-04-27T13:26:02.150Z,2.50
2018-04-27T13:27:02.153Z,2.60
2018-04-27T13:28:02.164Z,2.10